createdAt,value
2023-03-10T00:00:31.052Z,99191.00
2023-03-10T00:02:58.770Z,99212.88
2023-03-10T00:05:26.783Z,99211.44
2023-03-10T00:07:54.529Z,99247.31
2023-03-10T00:10:23.825Z,99222.34
2023-03-10T00:12:51.570Z,99216.63
2023-03-10T00:15:19.529Z,99205.53
2023-03-10T00:17:50.039Z,99222.81
2023-03-10T00:20:17.900Z,99215.97
2023-03-10T00:22:45.654Z,99207.34
2023-03-10T00:25:13.395Z,99225.66
2023-03-10T00:27:42.682Z,99211.34
2023-03-10T00:30:11.647Z,99221.00
2023-03-10T00:32:39.507Z,99226.03
2023-03-10T00:35:07.987Z,99223.28
2023-03-10T00:37:38.674Z,99206.47
2023-03-10T00:40:10.322Z,99228.13
2023-03-10T00:42:38.075Z,99228.88
2023-03-10T00:45:08.701Z,99229.81
2023-03-10T00:47:36.437Z,99231.19
2023-03-10T00:50:04.709Z,99227.06
2023-03-10T00:52:33.833Z,99235.97
2023-03-10T00:55:01.699Z,99215.72
2023-03-10T00:57:29.448Z,99200.69
2023-03-10T00:59:57.170Z,99198.19
2023-03-10T01:02:26.457Z,99193.84
2023-03-10T01:04:54.263Z,99184.78
2023-03-10T01:07:21.978Z,99175.66
2023-03-10T01:09:49.697Z,99160.50
2023-03-10T01:12:17.409Z,99161.28
2023-03-10T01:14:45.150Z,99139.31
2023-03-10T01:17:12.860Z,99151.09
2023-03-10T01:19:41.978Z,99133.34
2023-03-10T01:22:09.721Z,99129.09
2023-03-10T01:24:37.461Z,99114.06
2023-03-10T01:27:05.204Z,99088.34
2023-03-10T01:29:32.913Z,99083.53
2023-03-10T01:32:00.643Z,99085.84
2023-03-10T01:34:28.458Z,99081.28
2023-03-10T01:36:57.572Z,99077.72
2023-03-10T01:39:25.348Z,99068.88
2023-03-10T01:41:53.078Z,99086.31
2023-03-10T01:44:22.229Z,99082.38
2023-03-10T01:46:51.871Z,99087.47
2023-03-10T01:49:40.321Z,99085.44
2023-03-10T01:52:13.255Z,99062.25
2023-03-10T01:54:49.727Z,99057.91
2023-03-10T01:57:22.338Z,99038.56
2023-03-10T01:59:51.132Z,99044.44
2023-03-10T02:02:19.849Z,99020.00
2023-03-10T02:04:49.926Z,99033.41
2023-03-10T02:07:23.350Z,99015.56
2023-03-10T02:09:53.573Z,98992.78
2023-03-10T02:12:22.079Z,98995.63
2023-03-10T02:14:51.243Z,99001.81
2023-03-10T02:17:22.601Z,98985.06
2023-03-10T02:20:21.056Z,98971.59
2023-03-10T02:22:50.929Z,98990.78
2023-03-10T02:25:36.354Z,98981.34
2023-03-10T02:28:06.404Z,98986.00
2023-03-10T02:30:38.687Z,98973.63
2023-03-10T02:33:10.886Z,98971.59
2023-03-10T02:35:38.759Z,98989.44
2023-03-10T02:38:06.600Z,98981.03
2023-03-10T02:40:37.679Z,98980.53
2023-03-10T02:43:09.891Z,98969.97
2023-03-10T02:45:40.331Z,98947.78
2023-03-10T02:48:09.392Z,98947.94
2023-03-10T02:50:41.944Z,98940.25
2023-03-10T02:53:14.714Z,98947.94
2023-03-10T02:55:42.466Z,98945.81
2023-03-10T02:58:11.813Z,98936.63
2023-03-10T03:00:40.627Z,98916.97
2023-03-10T03:03:09.238Z,98924.78
2023-03-10T03:05:37.823Z,98904.97
2023-03-10T03:08:07.281Z,98901.03
2023-03-10T03:10:36.082Z,98901.97
2023-03-10T03:13:04.974Z,98898.53
2023-03-10T03:15:34.559Z,98907.06
2023-03-10T03:18:02.942Z,98924.34
2023-03-10T03:20:32.670Z,98904.06
2023-03-10T03:23:00.814Z,98906.59
2023-03-10T03:25:30.511Z,98884.50
2023-03-10T03:27:58.756Z,98861.69
2023-03-10T03:30:28.638Z,98851.59
2023-03-10T03:32:57.993Z,98834.63
2023-03-10T03:35:28.088Z,98839.16
2023-03-10T03:37:56.459Z,98850.16
2023-03-10T03:40:25.685Z,98846.44
2023-03-10T03:42:55.219Z,98819.09
2023-03-10T03:45:25.701Z,98799.88
2023-03-10T03:47:54.037Z,98809.44
2023-03-10T03:50:24.021Z,98802.97
2023-03-10T03:52:52.456Z,98795.88
2023-03-10T03:55:21.041Z,98788.19
2023-03-10T03:57:48.976Z,98793.94
2023-03-10T04:00:19.733Z,98796.81
2023-03-10T04:02:47.558Z,98792.44
2023-03-10T04:05:15.694Z,98788.72
2023-03-10T04:07:45.348Z,98774.84
2023-03-10T04:10:15.802Z,98769.22
2023-03-10T04:12:43.559Z,98767.53
2023-03-10T04:15:12.817Z,98759.72
2023-03-10T04:17:40.817Z,98752.69
2023-03-10T04:20:13.282Z,98733.63
2023-03-10T04:22:41.698Z,98746.41
2023-03-10T04:25:11.634Z,98767.56
2023-03-10T04:27:39.419Z,98749.97
2023-03-10T04:30:08.425Z,98750.91
2023-03-10T04:32:36.334Z,98741.28
2023-03-10T04:35:04.761Z,98752.19
2023-03-10T04:37:33.237Z,98753.41
2023-03-10T04:40:02.145Z,98738.78
2023-03-10T04:42:31.234Z,98726.47
2023-03-10T04:44:59.132Z,98712.19
2023-03-10T04:47:26.822Z,98702.19
2023-03-10T04:49:54.527Z,98692.84
2023-03-10T04:52:22.255Z,98698.06
2023-03-10T04:54:49.976Z,98696.25
2023-03-10T04:57:17.775Z,98690.50
2023-03-10T04:59:46.867Z,98681.06
2023-03-10T05:02:14.697Z,98720.31
2023-03-10T05:04:42.641Z,98717.69
2023-03-10T05:07:10.435Z,98710.00
2023-03-10T05:09:39.129Z,98707.00
2023-03-10T05:12:07.937Z,98715.63
2023-03-10T05:14:35.634Z,98722.50
2023-03-10T05:17:05.134Z,98710.81
2023-03-10T05:19:35.198Z,98710.84
2023-03-10T05:22:03.021Z,98703.81
2023-03-10T05:24:30.931Z,98694.09
2023-03-10T05:26:59.111Z,98700.53
2023-03-10T05:29:26.945Z,98673.34
2023-03-10T05:31:54.704Z,98668.25
2023-03-10T05:34:26.721Z,98671.03
2023-03-10T05:36:54.553Z,98695.44
2023-03-10T05:39:22.296Z,98681.44
2023-03-10T05:41:50.229Z,98681.00
2023-03-10T05:44:17.964Z,98679.81
2023-03-10T05:46:45.862Z,98677.19
2023-03-10T05:49:13.608Z,98671.84
2023-03-10T05:51:42.719Z,98668.16
2023-03-10T05:54:11.805Z,98673.19
2023-03-10T05:56:39.560Z,98654.13
2023-03-10T05:59:07.878Z,98676.78
2023-03-10T06:01:35.602Z,98668.22
2023-03-10T06:04:03.773Z,98692.03
2023-03-10T06:06:31.811Z,98686.94
2023-03-10T06:09:01.172Z,98685.25
2023-03-10T06:11:29.160Z,98697.63
2023-03-10T06:13:56.903Z,98706.91
2023-03-10T06:16:24.646Z,98703.38
2023-03-10T06:18:54.228Z,98718.16
2023-03-10T06:21:22.228Z,98731.66
2023-03-10T06:23:50.224Z,98725.69
2023-03-10T06:26:19.441Z,98738.16
2023-03-10T06:28:47.812Z,98735.13
2023-03-10T06:31:17.828Z,98711.44
2023-03-10T06:33:46.066Z,98733.66
2023-03-10T06:36:14.691Z,98717.41
2023-03-10T06:38:43.059Z,98752.41
2023-03-10T06:41:10.755Z,98767.53
2023-03-10T06:43:40.709Z,98748.69
2023-03-10T06:46:10.657Z,98748.69
2023-03-10T06:48:39.784Z,98756.75
2023-03-10T06:51:09.310Z,98764.50
2023-03-10T06:53:37.623Z,98763.66
2023-03-10T06:56:08.351Z,98757.72
2023-03-10T06:58:38.164Z,98772.72
2023-03-10T07:01:08.606Z,98772.38
2023-03-10T07:03:37.311Z,98751.44
2023-03-10T07:06:05.608Z,98755.47
2023-03-10T07:08:33.339Z,98766.03
2023-03-10T07:11:01.043Z,98746.97
2023-03-10T07:13:28.733Z,98726.59
2023-03-10T07:15:56.417Z,98730.16
2023-03-10T07:18:27.804Z,98745.25
2023-03-10T07:20:55.503Z,98739.50
2023-03-10T07:23:23.531Z,98772.53
2023-03-10T07:25:54.276Z,98784.03
2023-03-10T07:28:22.067Z,98771.50
2023-03-10T07:30:51.141Z,98768.53
2023-03-10T07:33:19.293Z,98771.97
2023-03-10T07:35:48.573Z,98763.63
2023-03-10T07:38:16.288Z,98775.00
2023-03-10T07:40:43.999Z,98770.38
2023-03-10T07:43:11.732Z,98779.94
2023-03-10T07:45:39.834Z,98794.00
2023-03-10T07:48:07.782Z,98786.16
2023-03-10T07:50:35.509Z,98800.75
2023-03-10T07:53:04.579Z,98815.38
2023-03-10T07:55:32.295Z,98848.28
2023-03-10T07:58:00.554Z,98814.84
2023-03-10T08:00:28.596Z,98809.47
2023-03-10T08:02:56.376Z,98784.00
2023-03-10T08:05:24.152Z,98790.59
2023-03-10T08:07:51.913Z,98788.84
2023-03-10T08:10:21.151Z,98805.66
2023-03-10T08:12:48.909Z,98810.06
2023-03-10T08:15:17.053Z,98804.34
2023-03-10T08:17:44.759Z,98828.94
2023-03-10T08:20:13.338Z,98812.81
2023-03-10T08:22:41.408Z,98832.75
2023-03-10T08:25:09.870Z,98842.47
2023-03-10T08:27:39.413Z,98835.59
2023-03-10T08:30:08.248Z,98845.97
2023-03-10T08:32:36.436Z,98840.97
2023-03-10T08:35:05.821Z,98847.91
2023-03-10T08:37:33.553Z,98844.19
2023-03-10T08:40:01.418Z,98846.06
2023-03-10T08:42:29.230Z,98853.03
2023-03-10T08:44:58.513Z,98852.34
2023-03-10T08:47:28.877Z,98873.59
2023-03-10T08:49:58.262Z,98883.38
2023-03-10T08:52:26.158Z,98896.47
2023-03-10T08:54:53.925Z,98900.78
2023-03-10T08:57:22.080Z,98897.50
2023-03-10T08:59:51.504Z,98894.56
2023-03-10T09:02:22.127Z,98895.34
2023-03-10T09:04:50.007Z,98880.31
2023-03-10T09:07:18.123Z,98899.16
2023-03-10T09:09:46.096Z,98900.84
2023-03-10T09:12:13.806Z,98890.44
2023-03-10T09:14:41.976Z,98901.13
2023-03-10T09:17:11.869Z,98924.69
2023-03-10T09:19:41.163Z,98928.19
2023-03-10T09:22:08.887Z,98913.59
2023-03-10T09:24:36.609Z,98912.34
2023-03-10T09:27:04.367Z,98908.34
2023-03-10T09:29:43.146Z,98925.31
2023-03-10T09:32:11.715Z,98926.13
2023-03-10T09:34:41.073Z,98938.63
2023-03-10T09:37:08.867Z,98952.94
2023-03-10T09:39:36.846Z,98939.47
2023-03-10T09:42:37.365Z,98921.97
2023-03-10T09:45:24.125Z,98923.09
2023-03-10T09:48:04.894Z,98916.75
2023-03-10T09:50:39.869Z,98923.59
2023-03-10T09:53:20.179Z,98931.63
2023-03-10T09:55:49.039Z,98951.63
2023-03-10T09:58:27.892Z,98961.47
2023-03-10T10:00:56.793Z,98964.91
2023-03-10T10:03:31.729Z,98962.63
2023-03-10T10:06:06.723Z,98958.44
2023-03-10T10:08:45.032Z,98970.88
2023-03-10T10:11:18.953Z,98973.28
2023-03-10T10:13:46.775Z,98976.38
2023-03-10T10:16:34.651Z,99003.53
2023-03-10T10:19:07.882Z,99000.22
2023-03-10T10:21:44.143Z,98989.22
2023-03-10T10:24:12.144Z,98996.09
2023-03-10T10:26:39.865Z,98979.63
2023-03-10T10:29:15.918Z,98994.28
2023-03-10T10:31:44.329Z,99016.50
2023-03-10T10:34:21.022Z,99023.22
2023-03-10T10:36:52.864Z,99039.34
2023-03-10T10:39:28.269Z,99039.97
2023-03-10T10:41:57.856Z,99038.97
2023-03-10T10:44:25.579Z,99025.94
2023-03-10T10:46:55.507Z,99025.00
2023-03-10T10:49:25.141Z,99046.03
2023-03-10T10:52:02.879Z,99041.03
2023-03-10T10:54:36.871Z,99037.06
2023-03-10T10:57:06.184Z,99046.06
2023-03-10T10:59:35.634Z,99032.41
2023-03-10T11:02:04.616Z,99025.78
2023-03-10T11:04:43.793Z,99029.38
2023-03-10T11:07:19.545Z,99037.41
2023-03-10T11:09:47.824Z,99043.78
2023-03-10T11:12:22.016Z,99053.22
2023-03-10T11:15:03.468Z,99058.28
2023-03-10T11:17:36.705Z,99048.69
2023-03-10T11:20:12.748Z,99050.16
2023-03-10T11:22:45.917Z,99061.66
2023-03-10T11:25:24.535Z,99049.81
2023-03-10T11:28:05.550Z,99052.56
2023-03-10T11:30:35.428Z,99056.50
2023-03-10T11:33:16.405Z,99067.03
2023-03-10T11:35:46.588Z,99047.47
2023-03-10T11:38:28.500Z,99045.53
2023-03-10T11:41:00.025Z,99044.13
2023-03-10T11:43:36.949Z,99044.53
2023-03-10T11:46:11.548Z,99047.00
2023-03-10T11:48:50.521Z,99042.88
2023-03-10T11:51:23.449Z,99036.72
2023-03-10T11:53:55.245Z,99021.13
2023-03-10T11:56:25.128Z,99033.75
2023-03-10T11:58:55.858Z,99033.09
2023-03-10T12:01:30.662Z,99036.38
2023-03-10T12:04:07.606Z,99037.28
2023-03-10T12:06:39.980Z,99015.19
2023-03-10T12:09:20.341Z,99007.59
2023-03-10T12:11:49.650Z,99009.06
2023-03-10T12:14:17.712Z,99010.66
2023-03-10T12:16:46.516Z,99004.56
2023-03-10T12:19:14.322Z,99027.66
2023-03-10T12:21:42.029Z,99025.09
2023-03-10T12:24:45.866Z,99018.66
2023-03-10T12:27:13.624Z,99015.22
2023-03-10T12:29:43.478Z,99019.97
2023-03-10T12:32:44.185Z,99013.31
2023-03-10T12:35:37.622Z,99013.50
2023-03-10T12:38:28.843Z,99001.88
2023-03-10T12:40:58.739Z,99011.88
2023-03-10T12:43:56.063Z,99005.72
2023-03-10T12:46:29.967Z,98997.53
2023-03-10T12:49:09.206Z,98983.19
2023-03-10T12:51:41.543Z,98992.47
2023-03-10T12:54:29.674Z,99001.44
2023-03-10T12:57:05.765Z,98994.50
2023-03-10T12:59:40.710Z,98966.63
2023-03-10T13:02:24.076Z,98993.09
2023-03-10T13:04:56.069Z,98990.19
2023-03-10T13:07:23.867Z,98970.72
2023-03-10T13:09:53.484Z,98986.56
2023-03-10T13:12:29.060Z,98972.16
2023-03-10T13:14:59.021Z,98984.13
2023-03-10T13:17:28.678Z,98985.31
2023-03-10T13:20:04.978Z,98974.91
2023-03-10T13:22:33.088Z,98985.63
2023-03-10T13:25:02.893Z,98986.75
2023-03-10T13:27:34.250Z,98980.31
2023-03-10T13:30:05.558Z,98977.41
2023-03-10T13:32:34.309Z,98968.38
2023-03-10T13:35:15.740Z,98979.31
2023-03-10T13:37:43.837Z,98988.31
2023-03-10T13:40:17.278Z,98998.16
2023-03-10T13:42:48.313Z,99003.09
2023-03-10T13:45:23.611Z,99013.56
2023-03-10T13:47:52.669Z,99027.47
2023-03-10T13:50:20.649Z,99026.19
2023-03-10T13:53:04.549Z,99036.25
2023-03-10T13:55:41.194Z,99059.97
2023-03-10T13:58:13.955Z,99042.72
2023-03-10T14:00:47.235Z,99050.63
2023-03-10T14:03:15.555Z,99048.22
2023-03-10T14:05:45.815Z,99038.38
2023-03-10T14:08:23.139Z,99010.66
2023-03-10T14:10:50.895Z,99024.09
2023-03-10T14:13:42.851Z,99017.72
2023-03-10T14:16:11.373Z,99041.03
2023-03-10T14:18:41.589Z,98998.13
2023-03-10T14:21:32.643Z,98989.03
2023-03-10T14:24:05.898Z,98955.50
2023-03-10T14:26:33.760Z,98948.78
2023-03-10T14:29:04.388Z,98946.09
2023-03-10T14:31:32.105Z,98902.91
2023-03-10T14:33:59.807Z,98880.13
2023-03-10T14:36:27.699Z,98840.13
2023-03-10T14:38:55.396Z,98825.38
2023-03-10T14:41:25.628Z,98829.72
2023-03-10T14:43:53.786Z,98827.13
2023-03-10T14:46:23.504Z,98811.63
2023-03-10T14:48:51.549Z,98785.81
2023-03-10T14:51:34.350Z,98784.31
2023-03-10T14:54:03.152Z,98795.41
2023-03-10T14:56:32.139Z,98783.31
2023-03-10T14:59:02.169Z,98784.19
2023-03-10T15:01:31.977Z,98738.22
2023-03-10T15:03:59.759Z,98725.81
2023-03-10T15:06:27.520Z,98728.94
2023-03-10T15:08:55.225Z,98715.28
2023-03-10T15:11:36.022Z,98718.19
2023-03-10T15:14:05.899Z,98721.56
2023-03-10T15:16:34.983Z,98718.94
2023-03-10T15:19:03.598Z,98740.63
2023-03-10T15:21:31.332Z,98742.72
2023-03-10T15:23:59.066Z,98728.09
2023-03-10T15:26:26.810Z,98722.63
2023-03-10T15:28:54.535Z,98722.25
2023-03-10T15:31:22.267Z,98736.69
2023-03-10T15:33:51.383Z,98733.59
2023-03-10T15:36:19.200Z,98775.91
2023-03-10T15:38:46.949Z,98768.25
2023-03-10T15:41:14.795Z,98779.53
2023-03-10T15:43:42.757Z,98757.66
2023-03-10T15:46:10.592Z,98746.31
2023-03-10T15:48:38.400Z,98745.84
2023-03-10T15:51:10.627Z,98759.78
2023-03-10T15:53:38.534Z,98744.25
2023-03-10T15:56:07.885Z,98742.44
2023-03-10T15:58:35.750Z,98760.84
2023-03-10T16:01:08.669Z,98803.34
2023-03-10T16:03:37.144Z,98793.06
2023-03-10T16:06:05.645Z,98799.28
2023-03-10T16:08:37.420Z,98772.53
2023-03-10T16:11:07.302Z,98759.25
2023-03-10T16:13:35.108Z,98744.44
2023-03-10T16:16:06.867Z,98764.50
2023-03-10T16:18:35.388Z,98744.38
2023-03-10T16:21:04.076Z,98728.59
2023-03-10T16:23:34.983Z,98737.22
2023-03-10T16:26:12.247Z,98756.50
2023-03-10T16:28:41.739Z,98755.66
2023-03-10T16:31:10.451Z,98775.47
2023-03-10T16:33:38.234Z,98762.69
2023-03-10T16:36:09.267Z,98754.09
2023-03-10T16:38:38.432Z,98775.78
2023-03-10T16:41:07.784Z,98796.72
2023-03-10T16:43:35.502Z,98799.91
2023-03-10T16:46:09.066Z,98802.94
2023-03-10T16:48:38.872Z,98822.63
2023-03-10T16:51:20.118Z,98825.03
2023-03-10T16:53:49.636Z,98849.22
2023-03-10T16:56:17.536Z,98850.91
2023-03-10T16:58:45.348Z,98861.81
2023-03-10T17:01:13.206Z,98868.53
2023-03-10T17:03:41.073Z,98869.31
2023-03-10T17:06:10.340Z,98848.19
2023-03-10T17:08:38.916Z,98842.72
2023-03-10T17:11:17.897Z,98876.19
2023-03-10T17:13:47.272Z,98896.09
2023-03-10T17:16:16.201Z,98896.66
2023-03-10T17:18:44.273Z,98902.34
2023-03-10T17:21:14.203Z,98889.78
2023-03-10T17:23:41.993Z,98935.63
2023-03-10T17:26:12.297Z,98950.56
2023-03-10T17:28:41.398Z,98959.38
2023-03-10T17:31:10.134Z,98977.38
2023-03-10T17:33:37.878Z,98968.84
2023-03-10T17:36:06.899Z,98957.50
2023-03-10T17:38:35.497Z,98958.72
2023-03-10T17:41:05.753Z,98963.47
2023-03-10T17:43:35.848Z,98974.81
2023-03-10T17:46:06.381Z,98965.19
2023-03-10T17:48:35.575Z,98932.09
2023-03-10T17:51:04.448Z,98928.53
2023-03-10T17:53:32.273Z,98942.44
2023-03-10T17:56:04.101Z,98929.94
2023-03-10T17:58:32.290Z,98945.84
2023-03-10T18:01:07.724Z,98933.94
2023-03-10T18:03:36.174Z,98932.56
2023-03-10T18:06:04.733Z,98940.19
2023-03-10T18:08:32.445Z,98924.72
2023-03-10T18:11:01.222Z,98878.31
2023-03-10T18:13:28.993Z,98901.72
2023-03-10T18:15:56.897Z,98890.72
2023-03-10T18:18:26.270Z,98890.44
2023-03-10T18:20:54.156Z,98903.53
2023-03-10T18:23:23.032Z,98909.75
2023-03-10T18:25:51.470Z,98902.22
2023-03-10T18:28:20.502Z,98891.63
2023-03-10T18:30:50.004Z,98876.34
2023-03-10T18:33:17.725Z,98873.66
2023-03-10T18:35:48.566Z,98859.22
2023-03-10T18:38:17.985Z,98861.47
2023-03-10T18:40:45.894Z,98878.03
2023-03-10T18:43:13.701Z,98851.63
2023-03-10T18:45:43.962Z,98858.06
2023-03-10T18:48:11.674Z,98853.34
2023-03-10T18:50:39.403Z,98851.75
2023-03-10T18:53:08.505Z,98865.09
2023-03-10T18:55:36.256Z,98865.59
2023-03-10T18:58:04.918Z,98837.69
2023-03-10T19:00:32.932Z,98822.00
2023-03-10T19:03:00.826Z,98807.69
2023-03-10T19:05:28.855Z,98813.56
2023-03-10T19:07:56.594Z,98829.00
2023-03-10T19:10:25.836Z,98824.22
2023-03-10T19:12:53.525Z,98780.88
2023-03-10T19:15:21.390Z,98775.06
2023-03-10T19:17:49.237Z,98757.84
2023-03-10T19:20:17.891Z,98724.28
2023-03-10T19:22:50.508Z,98716.97
2023-03-10T19:25:19.641Z,98725.97
2023-03-10T19:27:48.999Z,98737.84
2023-03-10T19:30:19.970Z,98740.28
2023-03-10T19:32:48.855Z,98709.94
2023-03-10T19:35:18.456Z,98694.84
2023-03-10T19:37:47.261Z,98689.97
2023-03-10T19:40:17.117Z,98683.56
2023-03-10T19:42:45.569Z,98715.78
2023-03-10T19:45:16.924Z,98706.44
2023-03-10T19:47:45.888Z,98727.81
2023-03-10T19:50:16.148Z,98733.50
2023-03-10T19:52:45.206Z,98725.38
2023-03-10T19:55:17.125Z,98733.09
2023-03-10T19:57:44.844Z,98731.88
2023-03-10T20:00:17.353Z,98720.81
2023-03-10T20:02:45.582Z,98713.00
2023-03-10T20:05:15.026Z,98691.41
2023-03-10T20:07:44.190Z,98672.88
2023-03-10T20:10:13.287Z,98683.91
2023-03-10T20:12:41.194Z,98671.53
2023-03-10T20:15:09.666Z,98667.72
2023-03-10T20:17:38.892Z,98661.75
2023-03-10T20:20:10.409Z,98673.56
2023-03-10T20:22:39.505Z,98667.78
2023-03-10T20:25:08.899Z,98671.38
2023-03-10T20:27:37.148Z,98687.66
2023-03-10T20:30:07.300Z,98672.94
2023-03-10T20:32:35.458Z,98698.00
2023-03-10T20:35:06.425Z,98710.84
2023-03-10T20:37:35.896Z,98706.44
2023-03-10T20:40:05.700Z,98712.22
2023-03-10T20:42:33.564Z,98732.75
2023-03-10T20:45:02.428Z,98715.84
2023-03-10T20:47:30.257Z,98710.97
2023-03-10T20:49:58.502Z,98701.53
2023-03-10T20:52:27.596Z,98700.75
2023-03-10T20:54:55.409Z,98704.94
2023-03-10T20:57:23.149Z,98703.16
2023-03-10T20:59:50.911Z,98715.59
2023-03-10T21:02:19.312Z,98725.31
2023-03-10T21:04:47.155Z,98738.38
2023-03-10T21:07:14.894Z,98748.94
2023-03-10T21:09:44.976Z,98737.31
2023-03-10T21:12:13.669Z,98729.84
2023-03-10T21:14:41.431Z,98737.03
2023-03-10T21:17:09.166Z,98731.94
2023-03-10T21:19:36.881Z,98749.13
2023-03-10T21:22:04.690Z,98752.31
2023-03-10T21:24:32.404Z,98745.44
2023-03-10T21:27:02.036Z,98768.34
2023-03-10T21:29:29.744Z,98781.16
2023-03-10T21:31:57.593Z,98789.47
2023-03-10T21:34:25.279Z,98790.59
2023-03-10T21:36:53.110Z,98805.94
2023-03-10T21:39:20.845Z,98816.84
2023-03-10T21:41:48.593Z,98841.59
2023-03-10T21:44:17.698Z,98865.09
2023-03-10T21:46:46.182Z,98864.59
2023-03-10T21:49:13.972Z,98881.00
2023-03-10T21:51:41.999Z,98933.19
2023-03-10T21:54:11.066Z,98911.19
2023-03-10T21:56:38.854Z,98937.66
2023-03-10T21:59:07.410Z,98949.88
2023-03-10T22:01:36.736Z,98965.56
2023-03-10T22:04:04.828Z,98968.59
2023-03-10T22:06:32.537Z,98970.09
2023-03-10T22:09:00.235Z,98997.19
2023-03-10T22:11:27.955Z,98993.72
2023-03-10T22:13:55.749Z,99010.78
2023-03-10T22:16:24.109Z,99013.63
2023-03-10T22:18:53.291Z,99027.63
2023-03-10T22:21:21.723Z,99031.03
2023-03-10T22:23:49.430Z,99033.13
2023-03-10T22:26:17.136Z,99053.28
2023-03-10T22:28:44.872Z,99063.53
2023-03-10T22:31:12.962Z,99062.13
2023-03-10T22:33:40.937Z,99075.41
2023-03-10T22:36:13.375Z,99105.09
2023-03-10T22:38:41.108Z,99121.63
2023-03-10T22:41:11.103Z,99127.78
2023-03-10T22:43:39.106Z,99142.28
2023-03-10T22:46:12.238Z,99132.25
2023-03-10T22:48:40.452Z,99162.91
2023-03-10T22:51:10.857Z,99156.25
2023-03-10T22:53:38.714Z,99156.44
2023-03-10T22:56:06.858Z,99168.38
2023-03-10T22:58:34.631Z,99170.63
2023-03-10T23:01:02.410Z,99163.88
2023-03-10T23:03:30.118Z,99162.91
2023-03-10T23:05:58.616Z,99170.59
2023-03-10T23:08:28.563Z,99194.63
2023-03-10T23:10:56.792Z,99192.38
2023-03-10T23:13:24.517Z,99184.97
2023-03-10T23:15:52.495Z,99191.31
2023-03-10T23:18:20.766Z,99180.69
2023-03-10T23:20:49.494Z,99161.16
2023-03-10T23:23:18.185Z,99165.50
2023-03-10T23:25:50.972Z,99169.44
2023-03-10T23:28:20.464Z,99158.78
2023-03-10T23:30:49.400Z,99138.84
2023-03-10T23:33:19.855Z,99139.41
2023-03-10T23:35:50.400Z,99121.41
2023-03-10T23:38:18.306Z,99143.38
2023-03-10T23:40:47.604Z,99132.78
2023-03-10T23:43:15.633Z,99126.81
2023-03-10T23:45:43.421Z,99083.06
2023-03-10T23:48:17.065Z,98985.72
2023-03-10T23:50:46.659Z,98948.31
2023-03-10T23:53:17.079Z,98943.66
2023-03-10T23:55:47.695Z,98945.72
2023-03-10T23:58:17.002Z,98960.31
